Terminal Aerodrome Forecast
Issued by NWS

Home | Current Version | Previous Version | Text Only | Print | Product List | Glossary On
Versions: 1 2 3 4 5 6 7 8 9 10 11 12 13 14 15 16 17 18 19 20 21 22
000
FTUS41 KAKQ 261700 RRA
TAFPHF
TAF
KPHF 261746Z 2618/2718 03008KT P6SM SCT100 BKN250
     FM270000 01010G18KT 4SM -RA BR OVC015
     FM270500 36014G22KT 2SM -SN BR OVC007
     FM271200 35012G19KT 4SM BR OVC015
     FM271600 33010G18KT P6SM BKN050=

USA.gov is the U.S. government's official web portal to all federal, state and local government web resources and services.